sensor_id;sensor_type;location;lat;lon;timestamp;P1;durP1;ratioP1;P2;durP2;ratioP2
30818;SDS011;17546;42.674;23.284;2023-03-23T00:02:29;29.40;;;16.30;;
30818;SDS011;17546;42.674;23.284;2023-03-23T00:05:00;29.38;;;16.48;;
30818;SDS011;17546;42.674;23.284;2023-03-23T00:07:28;26.70;;;16.40;;
30818;SDS011;17546;42.674;23.284;2023-03-23T00:09:54;26.98;;;16.33;;
30818;SDS011;17546;42.674;23.284;2023-03-23T00:12:24;28.67;;;16.60;;
30818;SDS011;17546;42.674;23.284;2023-03-23T00:14:58;29.45;;;17.08;;
30818;SDS011;17546;42.674;23.284;2023-03-23T00:17:28;27.05;;;16.20;;
30818;SDS011;17546;42.674;23.284;2023-03-23T00:19:54;26.25;;;15.88;;
30818;SDS011;17546;42.674;23.284;2023-03-23T00:22:20;29.27;;;16.88;;
30818;SDS011;17546;42.674;23.284;2023-03-23T00:24:47;28.75;;;16.02;;
30818;SDS011;17546;42.674;23.284;2023-03-23T00:27:15;28.35;;;16.17;;
30818;SDS011;17546;42.674;23.284;2023-03-23T00:29:41;28.33;;;15.55;;
30818;SDS011;17546;42.674;23.284;2023-03-23T00:32:07;27.60;;;17.33;;
30818;SDS011;17546;42.674;23.284;2023-03-23T00:34:38;26.05;;;15.82;;
30818;SDS011;17546;42.674;23.284;2023-03-23T00:37:05;31.35;;;16.52;;
30818;SDS011;17546;42.674;23.284;2023-03-23T00:39:33;26.77;;;15.95;;
30818;SDS011;17546;42.674;23.284;2023-03-23T00:42:02;28.17;;;16.65;;
30818;SDS011;17546;42.674;23.284;2023-03-23T00:44:28;31.33;;;16.75;;
30818;SDS011;17546;42.674;23.284;2023-03-23T00:47:00;29.85;;;15.95;;
30818;SDS011;17546;42.674;23.284;2023-03-23T00:49:26;27.25;;;15.85;;
30818;SDS011;17546;42.674;23.284;2023-03-23T00:51:55;28.25;;;15.95;;
30818;SDS011;17546;42.674;23.284;2023-03-23T00:54:22;27.85;;;15.48;;
30818;SDS011;17546;42.674;23.284;2023-03-23T00:56:49;26.23;;;15.27;;
30818;SDS011;17546;42.674;23.284;2023-03-23T00:59:15;30.33;;;16.60;;
30818;SDS011;17546;42.674;23.284;2023-03-23T01:01:40;28.08;;;16.48;;
30818;SDS011;17546;42.674;23.284;2023-03-23T01:04:06;30.75;;;16.02;;
30818;SDS011;17546;42.674;23.284;2023-03-23T01:06:33;30.60;;;16.92;;
30818;SDS011;17546;42.674;23.284;2023-03-23T01:09:00;29.10;;;16.65;;
30818;SDS011;17546;42.674;23.284;2023-03-23T01:11:28;30.77;;;17.45;;
30818;SDS011;17546;42.674;23.284;2023-03-23T01:13:54;32.15;;;18.17;;
30818;SDS011;17546;42.674;23.284;2023-03-23T01:16:20;32.33;;;18.38;;
30818;SDS011;17546;42.674;23.284;2023-03-23T01:18:46;29.30;;;17.20;;
30818;SDS011;17546;42.674;23.284;2023-03-23T01:21:13;34.88;;;19.00;;
30818;SDS011;17546;42.674;23.284;2023-03-23T01:23:41;30.65;;;17.55;;
30818;SDS011;17546;42.674;23.284;2023-03-23T01:26:11;36.28;;;20.30;;
30818;SDS011;17546;42.674;23.284;2023-03-23T01:28:38;37.65;;;21.35;;
30818;SDS011;17546;42.674;23.284;2023-03-23T01:31:08;45.60;;;21.25;;
30818;SDS011;17546;42.674;23.284;2023-03-23T01:33:37;42.53;;;21.05;;
30818;SDS011;17546;42.674;23.284;2023-03-23T01:36:07;42.83;;;22.02;;
30818;SDS011;17546;42.674;23.284;2023-03-23T01:38:37;43.97;;;23.48;;
30818;SDS011;17546;42.674;23.284;2023-03-23T01:41:03;44.25;;;24.02;;
30818;SDS011;17546;42.674;23.284;2023-03-23T01:43:30;49.38;;;25.67;;
30818;SDS011;17546;42.674;23.284;2023-03-23T01:45:56;47.60;;;25.58;;
30818;SDS011;17546;42.674;23.284;2023-03-23T01:48:23;48.42;;;25.35;;
30818;SDS011;17546;42.674;23.284;2023-03-23T01:51:08;47.00;;;24.45;;
30818;SDS011;17546;42.674;23.284;2023-03-23T01:53:40;42.30;;;23.50;;
30818;SDS011;17546;42.674;23.284;2023-03-23T01:56:11;45.95;;;24.27;;
30818;SDS011;17546;42.674;23.284;2023-03-23T01:58:39;42.08;;;23.35;;
30818;SDS011;17546;42.674;23.284;2023-03-23T02:01:06;41.17;;;21.73;;
30818;SDS011;17546;42.674;23.284;2023-03-23T02:03:36;42.58;;;21.60;;
30818;SDS011;17546;42.674;23.284;2023-03-23T02:06:04;43.70;;;22.52;;
30818;SDS011;17546;42.674;23.284;2023-03-23T02:08:30;38.97;;;20.95;;
30818;SDS011;17546;42.674;23.284;2023-03-23T02:10:57;40.17;;;22.40;;
30818;SDS011;17546;42.674;23.284;2023-03-23T02:13:23;39.28;;;21.60;;
30818;SDS011;17546;42.674;23.284;2023-03-23T02:18:25;32.55;;;18.50;;
30818;SDS011;17546;42.674;23.284;2023-03-23T02:27:00;33.35;;;16.50;;
30818;SDS011;17546;42.674;23.284;2023-03-23T02:29:47;29.42;;;16.00;;
30818;SDS011;17546;42.674;23.284;2023-03-23T02:32:40;24.95;;;15.05;;
30818;SDS011;17546;42.674;23.284;2023-03-23T02:35:25;27.58;;;16.15;;
30818;SDS011;17546;42.674;23.284;2023-03-23T02:37:57;26.70;;;15.98;;
30818;SDS011;17546;42.674;23.284;2023-03-23T02:40:35;25.25;;;15.60;;
30818;SDS011;17546;42.674;23.284;2023-03-23T02:43:08;33.13;;;16.85;;
30818;SDS011;17546;42.674;23.284;2023-03-23T02:45:37;30.40;;;16.50;;
30818;SDS011;17546;42.674;23.284;2023-03-23T02:48:03;28.23;;;16.55;;
30818;SDS011;17546;42.674;23.284;2023-03-23T02:50:30;31.63;;;15.77;;
30818;SDS011;17546;42.674;23.284;2023-03-23T02:52:58;29.20;;;15.70;;
30818;SDS011;17546;42.674;23.284;2023-03-23T02:55:25;25.20;;;15.38;;
30818;SDS011;17546;42.674;23.284;2023-03-23T02:57:55;26.73;;;15.52;;
30818;SDS011;17546;42.674;23.284;2023-03-23T03:00:21;30.83;;;14.90;;
30818;SDS011;17546;42.674;23.284;2023-03-23T03:02:50;26.15;;;14.60;;
30818;SDS011;17546;42.674;23.284;2023-03-23T03:07:58;22.25;;;14.55;;
30818;SDS011;17546;42.674;23.284;2023-03-23T03:10:31;24.27;;;14.30;;
30818;SDS011;17546;42.674;23.284;2023-03-23T03:16:05;35.60;;;19.00;;
30818;SDS011;17546;42.674;23.284;2023-03-23T03:18:56;37.35;;;19.70;;
30818;SDS011;17546;42.674;23.284;2023-03-23T03:21:27;28.00;;;16.30;;
30818;SDS011;17546;42.674;23.284;2023-03-23T03:23:56;44.10;;;23.55;;
30818;SDS011;17546;42.674;23.284;2023-03-23T03:26:26;41.47;;;22.02;;
30818;SDS011;17546;42.674;23.284;2023-03-23T03:28:54;44.67;;;22.73;;
30818;SDS011;17546;42.674;23.284;2023-03-23T03:31:21;50.58;;;23.60;;
30818;SDS011;17546;42.674;23.284;2023-03-23T03:33:51;46.25;;;23.42;;
30818;SDS011;17546;42.674;23.284;2023-03-23T03:36:18;50.42;;;25.42;;
30818;SDS011;17546;42.674;23.284;2023-03-23T03:38:48;48.45;;;24.08;;
30818;SDS011;17546;42.674;23.284;2023-03-23T03:41:16;46.15;;;24.05;;
30818;SDS011;17546;42.674;23.284;2023-03-23T03:43:42;43.28;;;24.55;;
30818;SDS011;17546;42.674;23.284;2023-03-23T03:46:07;44.88;;;24.33;;
30818;SDS011;17546;42.674;23.284;2023-03-23T03:48:33;42.55;;;23.80;;
30818;SDS011;17546;42.674;23.284;2023-03-23T03:50:58;55.10;;;26.70;;
30818;SDS011;17546;42.674;23.284;2023-03-23T03:53:26;46.08;;;25.08;;
30818;SDS011;17546;42.674;23.284;2023-03-23T03:55:52;58.92;;;26.05;;
30818;SDS011;17546;42.674;23.284;2023-03-23T03:58:26;52.00;;;26.60;;
30818;SDS011;17546;42.674;23.284;2023-03-23T04:00:59;53.58;;;27.42;;
30818;SDS011;17546;42.674;23.284;2023-03-23T04:03:29;46.92;;;26.33;;
30818;SDS011;17546;42.674;23.284;2023-03-23T04:05:55;52.10;;;26.35;;
30818;SDS011;17546;42.674;23.284;2023-03-23T04:08:21;47.50;;;25.15;;
30818;SDS011;17546;42.674;23.284;2023-03-23T04:10:47;49.70;;;25.75;;
30818;SDS011;17546;42.674;23.284;2023-03-23T04:13:13;48.28;;;25.77;;
30818;SDS011;17546;42.674;23.284;2023-03-23T04:15:39;48.42;;;25.92;;
30818;SDS011;17546;42.674;23.284;2023-03-23T04:18:04;49.90;;;25.85;;
30818;SDS011;17546;42.674;23.284;2023-03-23T04:20:30;55.67;;;25.33;;
30818;SDS011;17546;42.674;23.284;2023-03-23T04:22:56;45.88;;;25.52;;
30818;SDS011;17546;42.674;23.284;2023-03-23T04:25:22;45.90;;;24.55;;
30818;SDS011;17546;42.674;23.284;2023-03-23T04:27:48;47.42;;;23.70;;
30818;SDS011;17546;42.674;23.284;2023-03-23T04:30:19;48.35;;;24.10;;
30818;SDS011;17546;42.674;23.284;2023-03-23T04:32:47;51.22;;;23.25;;
30818;SDS011;17546;42.674;23.284;2023-03-23T04:35:15;45.88;;;22.17;;
30818;SDS011;17546;42.674;23.284;2023-03-23T04:37:42;39.83;;;22.15;;
30818;SDS011;17546;42.674;23.284;2023-03-23T04:40:08;41.17;;;22.35;;
30818;SDS011;17546;42.674;23.284;2023-03-23T04:42:37;40.58;;;23.17;;
30818;SDS011;17546;42.674;23.284;2023-03-23T04:45:04;47.00;;;22.70;;
30818;SDS011;17546;42.674;23.284;2023-03-23T04:47:33;41.63;;;23.23;;
30818;SDS011;17546;42.674;23.284;2023-03-23T04:50:06;46.53;;;24.08;;
30818;SDS011;17546;42.674;23.284;2023-03-23T04:52:37;45.40;;;23.25;;
30818;SDS011;17546;42.674;23.284;2023-03-23T04:55:06;46.90;;;24.40;;
30818;SDS011;17546;42.674;23.284;2023-03-23T04:57:34;50.63;;;25.35;;
30818;SDS011;17546;42.674;23.284;2023-03-23T05:00:00;48.10;;;25.30;;
30818;SDS011;17546;42.674;23.284;2023-03-23T05:02:29;47.10;;;24.45;;
30818;SDS011;17546;42.674;23.284;2023-03-23T05:04:55;49.72;;;25.77;;
30818;SDS011;17546;42.674;23.284;2023-03-23T05:07:22;50.55;;;25.80;;
30818;SDS011;17546;42.674;23.284;2023-03-23T05:09:48;54.13;;;27.08;;
30818;SDS011;17546;42.674;23.284;2023-03-23T05:12:14;54.45;;;27.30;;
30818;SDS011;17546;42.674;23.284;2023-03-23T05:14:41;54.92;;;27.73;;
30818;SDS011;17546;42.674;23.284;2023-03-23T05:17:07;52.85;;;27.85;;
30818;SDS011;17546;42.674;23.284;2023-03-23T05:19:34;55.00;;;27.95;;
30818;SDS011;17546;42.674;23.284;2023-03-23T05:22:00;52.72;;;29.27;;
30818;SDS011;17546;42.674;23.284;2023-03-23T05:24:30;55.35;;;27.67;;
30818;SDS011;17546;42.674;23.284;2023-03-23T05:26:57;56.97;;;28.90;;
30818;SDS011;17546;42.674;23.284;2023-03-23T05:29:23;55.50;;;29.95;;
30818;SDS011;17546;42.674;23.284;2023-03-23T05:31:50;69.78;;;35.47;;
30818;SDS011;17546;42.674;23.284;2023-03-23T05:34:18;62.13;;;34.13;;
30818;SDS011;17546;42.674;23.284;2023-03-23T05:36:44;67.47;;;35.10;;
30818;SDS011;17546;42.674;23.284;2023-03-23T05:39:11;66.72;;;35.75;;
30818;SDS011;17546;42.674;23.284;2023-03-23T05:41:36;69.57;;;36.20;;
30818;SDS011;17546;42.674;23.284;2023-03-23T05:44:02;74.20;;;38.22;;
30818;SDS011;17546;42.674;23.284;2023-03-23T05:46:28;73.70;;;40.17;;
30818;SDS011;17546;42.674;23.284;2023-03-23T05:48:54;73.90;;;39.72;;
30818;SDS011;17546;42.674;23.284;2023-03-23T05:51:19;78.13;;;39.67;;
30818;SDS011;17546;42.674;23.284;2023-03-23T05:53:45;67.47;;;39.08;;
30818;SDS011;17546;42.674;23.284;2023-03-23T05:56:10;68.68;;;38.80;;
30818;SDS011;17546;42.674;23.284;2023-03-23T05:58:36;84.70;;;40.22;;
30818;SDS011;17546;42.674;23.284;2023-03-23T06:01:05;73.32;;;40.03;;
30818;SDS011;17546;42.674;23.284;2023-03-23T06:03:32;84.68;;;41.70;;
30818;SDS011;17546;42.674;23.284;2023-03-23T06:05:57;78.30;;;41.28;;
30818;SDS011;17546;42.674;23.284;2023-03-23T06:08:23;77.93;;;41.15;;
30818;SDS011;17546;42.674;23.284;2023-03-23T06:10:49;78.20;;;40.42;;
30818;SDS011;17546;42.674;23.284;2023-03-23T06:13:14;78.97;;;40.17;;
30818;SDS011;17546;42.674;23.284;2023-03-23T06:15:40;80.65;;;38.90;;
30818;SDS011;17546;42.674;23.284;2023-03-23T06:18:05;76.30;;;38.63;;
30818;SDS011;17546;42.674;23.284;2023-03-23T06:20:31;74.30;;;37.88;;
30818;SDS011;17546;42.674;23.284;2023-03-23T06:22:58;74.63;;;37.92;;
30818;SDS011;17546;42.674;23.284;2023-03-23T06:25:23;76.50;;;39.92;;
30818;SDS011;17546;42.674;23.284;2023-03-23T06:27:49;73.88;;;39.03;;
30818;SDS011;17546;42.674;23.284;2023-03-23T06:30:17;75.13;;;38.42;;
30818;SDS011;17546;42.674;23.284;2023-03-23T06:32:42;67.25;;;37.15;;
30818;SDS011;17546;42.674;23.284;2023-03-23T06:35:11;63.30;;;34.63;;
30818;SDS011;17546;42.674;23.284;2023-03-23T06:37:36;66.50;;;34.45;;
30818;SDS011;17546;42.674;23.284;2023-03-23T06:40:02;56.92;;;30.20;;
30818;SDS011;17546;42.674;23.284;2023-03-23T06:42:31;53.10;;;28.27;;
30818;SDS011;17546;42.674;23.284;2023-03-23T06:44:57;52.88;;;29.48;;
30818;SDS011;17546;42.674;23.284;2023-03-23T06:47:25;47.97;;;26.90;;
30818;SDS011;17546;42.674;23.284;2023-03-23T06:49:52;44.35;;;27.00;;
30818;SDS011;17546;42.674;23.284;2023-03-23T06:52:17;56.63;;;29.52;;
30818;SDS011;17546;42.674;23.284;2023-03-23T06:54:43;55.03;;;29.75;;
30818;SDS011;17546;42.674;23.284;2023-03-23T06:57:09;53.78;;;28.75;;
30818;SDS011;17546;42.674;23.284;2023-03-23T06:59:34;49.80;;;28.67;;
30818;SDS011;17546;42.674;23.284;2023-03-23T07:02:00;50.72;;;28.63;;
30818;SDS011;17546;42.674;23.284;2023-03-23T07:04:25;50.13;;;29.77;;
30818;SDS011;17546;42.674;23.284;2023-03-23T07:06:51;51.38;;;29.08;;
30818;SDS011;17546;42.674;23.284;2023-03-23T07:09:16;50.10;;;28.55;;
30818;SDS011;17546;42.674;23.284;2023-03-23T07:11:42;52.10;;;27.88;;
30818;SDS011;17546;42.674;23.284;2023-03-23T07:14:08;49.63;;;29.27;;
30818;SDS011;17546;42.674;23.284;2023-03-23T07:16:34;49.78;;;28.38;;
30818;SDS011;17546;42.674;23.284;2023-03-23T07:18:59;44.63;;;26.17;;
30818;SDS011;17546;42.674;23.284;2023-03-23T07:21:25;48.05;;;27.58;;
30818;SDS011;17546;42.674;23.284;2023-03-23T07:23:51;49.67;;;28.10;;
30818;SDS011;17546;42.674;23.284;2023-03-23T07:26:16;51.72;;;29.63;;
30818;SDS011;17546;42.674;23.284;2023-03-23T07:28:42;62.25;;;30.15;;
30818;SDS011;17546;42.674;23.284;2023-03-23T07:31:07;59.92;;;29.83;;
30818;SDS011;17546;42.674;23.284;2023-03-23T07:33:34;50.75;;;29.17;;
30818;SDS011;17546;42.674;23.284;2023-03-23T07:36:00;65.68;;;31.73;;
30818;SDS011;17546;42.674;23.284;2023-03-23T07:38:27;59.03;;;30.77;;
30818;SDS011;17546;42.674;23.284;2023-03-23T07:40:53;62.05;;;32.15;;
30818;SDS011;17546;42.674;23.284;2023-03-23T07:43:19;59.65;;;32.75;;
30818;SDS011;17546;42.674;23.284;2023-03-23T07:45:46;56.25;;;30.83;;
30818;SDS011;17546;42.674;23.284;2023-03-23T07:48:11;58.58;;;31.35;;
30818;SDS011;17546;42.674;23.284;2023-03-23T07:50:37;57.05;;;29.95;;
30818;SDS011;17546;42.674;23.284;2023-03-23T07:53:03;65.28;;;28.70;;
30818;SDS011;17546;42.674;23.284;2023-03-23T07:55:29;49.20;;;28.27;;
30818;SDS011;17546;42.674;23.284;2023-03-23T07:57:55;59.50;;;28.02;;
30818;SDS011;17546;42.674;23.284;2023-03-23T08:00:22;62.45;;;29.17;;
30818;SDS011;17546;42.674;23.284;2023-03-23T08:02:57;53.72;;;28.40;;
30818;SDS011;17546;42.674;23.284;2023-03-23T08:05:24;57.72;;;28.58;;
30818;SDS011;17546;42.674;23.284;2023-03-23T08:07:51;57.08;;;29.90;;
30818;SDS011;17546;42.674;23.284;2023-03-23T08:10:20;57.33;;;29.30;;
30818;SDS011;17546;42.674;23.284;2023-03-23T08:12:50;55.00;;;27.38;;
30818;SDS011;17546;42.674;23.284;2023-03-23T08:15:17;51.20;;;28.23;;
30818;SDS011;17546;42.674;23.284;2023-03-23T08:17:44;52.38;;;27.58;;
30818;SDS011;17546;42.674;23.284;2023-03-23T08:20:11;57.03;;;27.90;;
30818;SDS011;17546;42.674;23.284;2023-03-23T08:22:41;44.33;;;25.40;;
30818;SDS011;17546;42.674;23.284;2023-03-23T08:25:10;43.03;;;23.35;;
30818;SDS011;17546;42.674;23.284;2023-03-23T08:27:37;37.35;;;22.17;;
30818;SDS011;17546;42.674;23.284;2023-03-23T08:30:08;38.33;;;19.88;;
30818;SDS011;17546;42.674;23.284;2023-03-23T08:32:36;36.60;;;20.90;;
30818;SDS011;17546;42.674;23.284;2023-03-23T08:35:02;42.22;;;22.20;;
30818;SDS011;17546;42.674;23.284;2023-03-23T08:37:28;42.40;;;21.63;;
30818;SDS011;17546;42.674;23.284;2023-03-23T08:39:54;35.70;;;20.75;;
30818;SDS011;17546;42.674;23.284;2023-03-23T08:42:22;32.40;;;16.20;;
30818;SDS011;17546;42.674;23.284;2023-03-23T08:44:49;38.95;;;15.93;;
30818;SDS011;17546;42.674;23.284;2023-03-23T08:47:15;30.63;;;17.80;;
30818;SDS011;17546;42.674;23.284;2023-03-23T08:49:41;25.77;;;14.43;;
30818;SDS011;17546;42.674;23.284;2023-03-23T08:52:07;24.88;;;13.55;;
30818;SDS011;17546;42.674;23.284;2023-03-23T08:54:33;22.65;;;12.35;;
30818;SDS011;17546;42.674;23.284;2023-03-23T08:57:01;22.70;;;11.82;;
30818;SDS011;17546;42.674;23.284;2023-03-23T08:59:27;19.30;;;10.00;;
30818;SDS011;17546;42.674;23.284;2023-03-23T09:01:53;15.70;;;10.55;;
30818;SDS011;17546;42.674;23.284;2023-03-23T09:04:19;16.35;;;10.32;;
30818;SDS011;17546;42.674;23.284;2023-03-23T09:06:44;19.55;;;9.80;;
30818;SDS011;17546;42.674;23.284;2023-03-23T09:09:10;16.17;;;9.32;;
30818;SDS011;17546;42.674;23.284;2023-03-23T09:11:36;19.17;;;9.57;;
30818;SDS011;17546;42.674;23.284;2023-03-23T09:14:02;19.40;;;10.52;;
30818;SDS011;17546;42.674;23.284;2023-03-23T09:16:30;22.00;;;12.23;;
30818;SDS011;17546;42.674;23.284;2023-03-23T09:18:56;23.50;;;11.40;;
30818;SDS011;17546;42.674;23.284;2023-03-23T09:21:22;18.38;;;10.20;;
30818;SDS011;17546;42.674;23.284;2023-03-23T09:23:48;20.15;;;9.93;;
30818;SDS011;17546;42.674;23.284;2023-03-23T09:26:14;20.50;;;9.05;;
30818;SDS011;17546;42.674;23.284;2023-03-23T09:28:40;15.85;;;8.70;;
30818;SDS011;17546;42.674;23.284;2023-03-23T09:31:05;15.27;;;9.27;;
30818;SDS011;17546;42.674;23.284;2023-03-23T09:33:31;15.95;;;8.32;;
30818;SDS011;17546;42.674;23.284;2023-03-23T09:35:59;14.90;;;8.65;;
30818;SDS011;17546;42.674;23.284;2023-03-23T09:38:27;12.32;;;8.13;;
30818;SDS011;17546;42.674;23.284;2023-03-23T09:49:25;16.60;;;8.68;;
30818;SDS011;17546;42.674;23.284;2023-03-23T09:52:16;15.25;;;8.60;;
30818;SDS011;17546;42.674;23.284;2023-03-23T09:54:44;14.82;;;8.90;;
30818;SDS011;17546;42.674;23.284;2023-03-23T09:57:29;15.98;;;9.20;;
30818;SDS011;17546;42.674;23.284;2023-03-23T10:00:03;15.70;;;9.38;;
30818;SDS011;17546;42.674;23.284;2023-03-23T10:02:34;16.67;;;9.50;;
30818;SDS011;17546;42.674;23.284;2023-03-23T10:05:49;12.45;;;8.30;;
30818;SDS011;17546;42.674;23.284;2023-03-23T10:07:54;13.90;;;9.18;;
30818;SDS011;17546;42.674;23.284;2023-03-23T10:10:19;17.92;;;8.80;;
30818;SDS011;17546;42.674;23.284;2023-03-23T10:12:54;23.25;;;9.80;;
30818;SDS011;17546;42.674;23.284;2023-03-23T10:15:32;17.15;;;9.07;;
30818;SDS011;17546;42.674;23.284;2023-03-23T10:18:02;19.77;;;8.32;;
30818;SDS011;17546;42.674;23.284;2023-03-23T10:20:30;16.58;;;9.90;;
30818;SDS011;17546;42.674;23.284;2023-03-23T10:23:04;16.15;;;8.70;;
30818;SDS011;17546;42.674;23.284;2023-03-23T10:25:34;14.85;;;9.25;;
30818;SDS011;17546;42.674;23.284;2023-03-23T10:28:13;17.20;;;8.40;;
30818;SDS011;17546;42.674;23.284;2023-03-23T10:30:44;15.63;;;8.27;;
30818;SDS011;17546;42.674;23.284;2023-03-23T10:39:12;17.75;;;8.98;;
30818;SDS011;17546;42.674;23.284;2023-03-23T10:41:42;11.95;;;7.57;;
30818;SDS011;17546;42.674;23.284;2023-03-23T10:44:09;14.32;;;7.70;;
30818;SDS011;17546;42.674;23.284;2023-03-23T10:46:51;252.30;;;183.23;;
30818;SDS011;17546;42.674;23.284;2023-03-23T10:49:22;15.23;;;10.02;;
30818;SDS011;17546;42.674;23.284;2023-03-23T10:55:13;10.00;;;6.90;;
30818;SDS011;17546;42.674;23.284;2023-03-23T10:57:40;11.63;;;7.63;;
30818;SDS011;17546;42.674;23.284;2023-03-23T11:02:46;14.20;;;7.68;;
30818;SDS011;17546;42.674;23.284;2023-03-23T11:05:23;17.13;;;10.05;;
30818;SDS011;17546;42.674;23.284;2023-03-23T11:07:54;14.57;;;8.60;;
30818;SDS011;17546;42.674;23.284;2023-03-23T11:10:26;13.20;;;7.93;;
30818;SDS011;17546;42.674;23.284;2023-03-23T11:12:59;13.75;;;7.93;;
30818;SDS011;17546;42.674;23.284;2023-03-23T11:15:27;10.88;;;6.97;;
30818;SDS011;17546;42.674;23.284;2023-03-23T11:18:05;14.02;;;7.00;;
30818;SDS011;17546;42.674;23.284;2023-03-23T11:20:36;10.85;;;6.80;;
30818;SDS011;17546;42.674;23.284;2023-03-23T11:23:23;12.82;;;7.65;;
30818;SDS011;17546;42.674;23.284;2023-03-23T11:25:53;14.75;;;7.93;;
30818;SDS011;17546;42.674;23.284;2023-03-23T11:28:35;13.13;;;7.68;;
30818;SDS011;17546;42.674;23.284;2023-03-23T11:31:07;16.05;;;9.20;;
30818;SDS011;17546;42.674;23.284;2023-03-23T11:33:46;11.63;;;7.85;;
30818;SDS011;17546;42.674;23.284;2023-03-23T11:36:16;14.27;;;7.90;;
30818;SDS011;17546;42.674;23.284;2023-03-23T11:38:42;13.75;;;7.50;;
30818;SDS011;17546;42.674;23.284;2023-03-23T11:41:13;12.80;;;7.28;;
30818;SDS011;17546;42.674;23.284;2023-03-23T11:43:44;11.00;;;7.13;;
30818;SDS011;17546;42.674;23.284;2023-03-23T11:49:01;13.52;;;7.60;;
30818;SDS011;17546;42.674;23.284;2023-03-23T11:56:49;10.23;;;6.50;;
30818;SDS011;17546;42.674;23.284;2023-03-23T11:59:15;11.10;;;7.03;;
30818;SDS011;17546;42.674;23.284;2023-03-23T12:10:41;15.07;;;7.85;;
30818;SDS011;17546;42.674;23.284;2023-03-23T12:13:18;11.90;;;7.50;;
30818;SDS011;17546;42.674;23.284;2023-03-23T12:16:23;18.75;;;7.75;;
30818;SDS011;17546;42.674;23.284;2023-03-23T12:26:36;11.45;;;7.13;;
30818;SDS011;17546;42.674;23.284;2023-03-23T12:31:45;13.73;;;7.30;;
30818;SDS011;17546;42.674;23.284;2023-03-23T12:44:50;13.60;;;5.50;;
30818;SDS011;17546;42.674;23.284;2023-03-23T12:47:30;8.98;;;6.22;;
30818;SDS011;17546;42.674;23.284;2023-03-23T12:50:03;9.40;;;6.28;;
30818;SDS011;17546;42.674;23.284;2023-03-23T12:52:38;12.18;;;6.70;;
30818;SDS011;17546;42.674;23.284;2023-03-23T12:58:05;16.05;;;6.80;;
30818;SDS011;17546;42.674;23.284;2023-03-23T13:00:35;12.00;;;6.72;;
30818;SDS011;17546;42.674;23.284;2023-03-23T13:03:30;10.32;;;6.60;;
30818;SDS011;17546;42.674;23.284;2023-03-23T13:11:01;8.98;;;6.05;;
30818;SDS011;17546;42.674;23.284;2023-03-23T13:13:42;9.15;;;5.75;;
30818;SDS011;17546;42.674;23.284;2023-03-23T13:16:35;8.68;;;5.97;;
30818;SDS011;17546;42.674;23.284;2023-03-23T13:22:17;9.98;;;5.45;;
30818;SDS011;17546;42.674;23.284;2023-03-23T13:24:55;8.48;;;5.82;;
30818;SDS011;17546;42.674;23.284;2023-03-23T13:27:24;8.68;;;5.30;;
30818;SDS011;17546;42.674;23.284;2023-03-23T13:29:55;10.27;;;5.20;;
30818;SDS011;17546;42.674;23.284;2023-03-23T13:32:32;7.53;;;5.22;;
30818;SDS011;17546;42.674;23.284;2023-03-23T13:35:02;9.90;;;5.40;;
30818;SDS011;17546;42.674;23.284;2023-03-23T13:37:30;14.43;;;5.68;;
30818;SDS011;17546;42.674;23.284;2023-03-23T13:39:57;8.32;;;5.80;;
30818;SDS011;17546;42.674;23.284;2023-03-23T13:42:53;8.95;;;5.40;;
30818;SDS011;17546;42.674;23.284;2023-03-23T13:50:58;8.43;;;5.80;;
30818;SDS011;17546;42.674;23.284;2023-03-23T13:53:26;13.02;;;5.65;;
30818;SDS011;17546;42.674;23.284;2023-03-23T13:59:07;13.15;;;6.00;;
30818;SDS011;17546;42.674;23.284;2023-03-23T14:01:42;12.45;;;5.43;;
30818;SDS011;17546;42.674;23.284;2023-03-23T14:04:13;8.85;;;5.72;;
30818;SDS011;17546;42.674;23.284;2023-03-23T14:06:41;8.43;;;5.20;;
30818;SDS011;17546;42.674;23.284;2023-03-23T14:11:48;10.05;;;5.90;;
30818;SDS011;17546;42.674;23.284;2023-03-23T14:14:17;10.00;;;5.15;;
30818;SDS011;17546;42.674;23.284;2023-03-23T14:16:48;8.57;;;5.50;;
30818;SDS011;17546;42.674;23.284;2023-03-23T14:21:57;9.63;;;5.32;;
30818;SDS011;17546;42.674;23.284;2023-03-23T14:24:25;10.27;;;5.75;;
30818;SDS011;17546;42.674;23.284;2023-03-23T14:29:37;10.68;;;5.35;;
30818;SDS011;17546;42.674;23.284;2023-03-23T14:32:02;10.02;;;5.47;;
30818;SDS011;17546;42.674;23.284;2023-03-23T14:34:31;8.82;;;5.82;;
30818;SDS011;17546;42.674;23.284;2023-03-23T14:36:59;10.93;;;5.82;;
30818;SDS011;17546;42.674;23.284;2023-03-23T14:39:26;10.05;;;5.45;;
30818;SDS011;17546;42.674;23.284;2023-03-23T14:41:54;13.55;;;5.55;;
30818;SDS011;17546;42.674;23.284;2023-03-23T14:44:27;7.97;;;4.90;;
30818;SDS011;17546;42.674;23.284;2023-03-23T14:47:00;17.02;;;6.40;;
30818;SDS011;17546;42.674;23.284;2023-03-23T14:49:32;10.73;;;5.85;;
30818;SDS011;17546;42.674;23.284;2023-03-23T14:52:08;9.52;;;6.53;;
30818;SDS011;17546;42.674;23.284;2023-03-23T14:54:36;14.40;;;6.28;;
30818;SDS011;17546;42.674;23.284;2023-03-23T14:57:48;15.02;;;6.18;;
30818;SDS011;17546;42.674;23.284;2023-03-23T14:59:49;12.45;;;6.40;;
30818;SDS011;17546;42.674;23.284;2023-03-23T15:02:34;9.25;;;5.85;;
30818;SDS011;17546;42.674;23.284;2023-03-23T15:05:09;11.18;;;6.55;;
30818;SDS011;17546;42.674;23.284;2023-03-23T15:07:43;22.20;;;7.07;;
30818;SDS011;17546;42.674;23.284;2023-03-23T15:10:14;15.15;;;6.13;;
30818;SDS011;17546;42.674;23.284;2023-03-23T15:12:46;9.65;;;6.00;;
30818;SDS011;17546;42.674;23.284;2023-03-23T15:15:30;14.05;;;5.68;;
30818;SDS011;17546;42.674;23.284;2023-03-23T15:17:58;14.60;;;6.05;;
30818;SDS011;17546;42.674;23.284;2023-03-23T15:22:53;16.20;;;6.90;;
30818;SDS011;17546;42.674;23.284;2023-03-23T15:25:37;13.98;;;6.28;;
30818;SDS011;17546;42.674;23.284;2023-03-23T15:28:19;11.95;;;6.13;;
30818;SDS011;17546;42.674;23.284;2023-03-23T15:30:53;11.90;;;6.53;;
30818;SDS011;17546;42.674;23.284;2023-03-23T15:33:21;16.03;;;6.70;;
30818;SDS011;17546;42.674;23.284;2023-03-23T15:35:51;11.50;;;6.53;;
30818;SDS011;17546;42.674;23.284;2023-03-23T15:38:26;9.48;;;6.25;;
30818;SDS011;17546;42.674;23.284;2023-03-23T15:40:56;14.40;;;7.60;;
30818;SDS011;17546;42.674;23.284;2023-03-23T15:43:26;19.27;;;7.05;;
30818;SDS011;17546;42.674;23.284;2023-03-23T15:46:03;12.63;;;7.03;;
30818;SDS011;17546;42.674;23.284;2023-03-23T15:51:16;28.10;;;7.50;;
30818;SDS011;17546;42.674;23.284;2023-03-23T15:53:44;17.33;;;6.60;;
30818;SDS011;17546;42.674;23.284;2023-03-23T15:56:10;9.85;;;6.18;;
30818;SDS011;17546;42.674;23.284;2023-03-23T15:58:37;13.02;;;6.55;;
30818;SDS011;17546;42.674;23.284;2023-03-23T16:01:09;20.40;;;6.60;;
30818;SDS011;17546;42.674;23.284;2023-03-23T16:06:02;11.93;;;6.40;;
30818;SDS011;17546;42.674;23.284;2023-03-23T16:08:28;10.25;;;6.30;;
30818;SDS011;17546;42.674;23.284;2023-03-23T16:10:54;41.50;;;7.45;;
30818;SDS011;17546;42.674;23.284;2023-03-23T16:13:19;18.98;;;7.90;;
30818;SDS011;17546;42.674;23.284;2023-03-23T16:15:45;18.50;;;7.68;;